createdAt,value
2022-11-19T00:02:07.838Z,-3.1
2022-11-19T00:07:07.912Z,-3.1
2022-11-19T00:12:07.716Z,-3.1
2022-11-19T00:17:07.648Z,-3.1
2022-11-19T00:22:07.693Z,-3.1
2022-11-19T00:27:07.726Z,-3.1
2022-11-19T00:32:07.881Z,-3.2
2022-11-19T00:37:07.756Z,-3.2
2022-11-19T00:42:07.630Z,-3.2
2022-11-19T00:47:07.612Z,-3.2
2022-11-19T00:52:07.622Z,-3.2
2022-11-19T00:57:07.605Z,-3.2
2022-11-19T01:02:07.884Z,-3.2
2022-11-19T01:07:07.698Z,-3.2
2022-11-19T01:12:07.578Z,-3.2
2022-11-19T01:17:07.868Z,-3.2
2022-11-19T01:22:07.569Z,-3.2
2022-11-19T01:27:07.544Z,-3.2
2022-11-19T01:32:07.680Z,-3.2
2022-11-19T01:37:07.608Z,-3.2
2022-11-19T01:42:07.655Z,-3.2
2022-11-19T01:47:07.777Z,-3.2
2022-11-19T01:52:07.495Z,-3.2
2022-11-19T01:57:07.519Z,-3.2
2022-11-19T02:02:07.974Z,-3.2
2022-11-19T02:07:07.812Z,-3.2
2022-11-19T02:08:18.384Z,-3.2
2022-11-19T02:13:18.373Z,-3.2
2022-11-19T02:18:18.350Z,-3.2
2022-11-19T02:23:18.345Z,-3.2
2022-11-19T02:28:18.469Z,-3.2
2022-11-19T02:33:18.385Z,-3.2
2022-11-19T02:38:18.371Z,-3.2
2022-11-19T02:43:18.498Z,-3.2
2022-11-19T02:48:18.347Z,-3.2
2022-11-19T02:53:18.279Z,-3.2
2022-11-19T02:58:18.415Z,-3.2
2022-11-19T03:03:18.286Z,-3.2
2022-11-19T03:08:18.275Z,-3.2
2022-11-19T03:13:18.357Z,-3.2
2022-11-19T03:18:18.274Z,-3.2
2022-11-19T03:23:18.224Z,-3.2
2022-11-19T03:28:18.368Z,-3.2
2022-11-19T03:33:18.220Z,-3.2
2022-11-19T03:38:18.234Z,-3.2
2022-11-19T03:43:18.451Z,-3.2
2022-11-19T03:48:18.192Z,-3.2
2022-11-19T03:53:18.289Z,-3.2
2022-11-19T03:58:18.347Z,-3.2
2022-11-19T04:03:18.208Z,-3.2
2022-11-19T04:08:18.209Z,-3.2
2022-11-19T04:13:18.385Z,-3.2
2022-11-19T04:18:18.134Z,-3.2
2022-11-19T04:23:18.124Z,-3.1
2022-11-19T04:28:18.315Z,-3.1
2022-11-19T04:33:18.148Z,-3.1
2022-11-19T04:38:18.945Z,-3.1
2022-11-19T04:43:18.095Z,-3.1
2022-11-19T04:48:18.146Z,-3.1
2022-11-19T04:53:18.174Z,-3.1
2022-11-19T04:58:18.085Z,-3.1
2022-11-19T05:03:18.030Z,-3.1
2022-11-19T05:08:18.182Z,-3.1
2022-11-19T05:13:18.296Z,-3.2
2022-11-19T05:18:17.976Z,-3.2
2022-11-19T05:23:18.112Z,-3.2
2022-11-19T05:28:18.088Z,-3.3
2022-11-19T05:33:18.169Z,-3.4
2022-11-19T05:38:18.128Z,-3.4
2022-11-19T05:43:18.068Z,-3.5
2022-11-19T05:48:17.915Z,-3.5
2022-11-19T05:53:18.655Z,-3.5
2022-11-19T05:58:17.974Z,-3.6
2022-11-19T06:03:18.104Z,-3.7
2022-11-19T06:08:18.241Z,-3.7
2022-11-19T06:13:18.404Z,-3.8
2022-11-19T06:18:18.094Z,-3.8
2022-11-19T06:23:17.861Z,-3.8
2022-11-19T06:28:18.093Z,-3.8
2022-11-19T06:33:17.965Z,-3.8
2022-11-19T06:38:17.828Z,-3.8
2022-11-19T06:43:17.982Z,-3.8
2022-11-19T06:48:17.926Z,-3.8
2022-11-19T06:53:18.082Z,-3.8
2022-11-19T06:58:17.814Z,-3.8
2022-11-19T07:03:17.940Z,-3.8
2022-11-19T07:08:18.141Z,-3.8
2022-11-19T07:13:17.894Z,-3.8
2022-11-19T07:18:17.751Z,-3.7
2022-11-19T07:23:18.040Z,-3.7
2022-11-19T07:28:17.821Z,-3.6
2022-11-19T07:33:17.861Z,-3.6
2022-11-19T07:38:17.932Z,-3.6
2022-11-19T07:43:17.728Z,-3.6
2022-11-19T07:48:17.792Z,-3.6
2022-11-19T07:53:17.861Z,-3.6
2022-11-19T07:58:17.741Z,-3.5
2022-11-19T08:03:17.758Z,-3.5
2022-11-19T08:08:17.928Z,-3.5
2022-11-19T08:13:17.732Z,-3.5
2022-11-19T08:18:17.724Z,-3.4
2022-11-19T08:23:17.857Z,-3.3
2022-11-19T08:28:17.646Z,-3.2
2022-11-19T08:33:17.704Z,-3.2
2022-11-19T08:38:17.812Z,-3.2
2022-11-19T08:43:17.671Z,-3.2
2022-11-19T08:48:17.592Z,-3.0
2022-11-19T08:53:17.893Z,-3.0
2022-11-19T08:58:18.514Z,-2.9
2022-11-19T09:03:17.689Z,-2.8
2022-11-19T09:08:17.666Z,-2.7
2022-11-19T09:13:17.911Z,-2.6
2022-11-19T09:18:17.645Z,-2.5
2022-11-19T09:23:17.572Z,-2.3
2022-11-19T09:28:17.935Z,-2.3
2022-11-19T09:33:17.614Z,-2.1
2022-11-19T09:38:17.639Z,-2.0
2022-11-19T09:43:17.754Z,-1.9
2022-11-19T09:48:17.596Z,-1.9
2022-11-19T09:53:17.712Z,-1.9
2022-11-19T09:58:17.711Z,-2.0
2022-11-19T10:03:17.660Z,-1.9
2022-11-19T10:08:17.484Z,-1.8
2022-11-19T10:13:17.747Z,-1.7
2022-11-19T10:18:17.749Z,-1.7
2022-11-19T10:23:18.274Z,-1.5
2022-11-19T10:28:18.826Z,-1.3
2022-11-19T10:33:19.699Z,-1.1
2022-11-19T10:38:19.723Z,-1.2
2022-11-19T10:43:23.466Z,-1.2
2022-11-19T10:48:21.850Z,-1.2
2022-11-19T10:53:18.455Z,-1.4
2022-11-19T10:58:17.524Z,-1.3
2022-11-19T11:03:18.244Z,-1.3
2022-11-19T11:08:17.500Z,-1.4
2022-11-19T11:13:17.439Z,-1.4
2022-11-19T11:18:18.297Z,-1.4
2022-11-19T11:23:17.459Z,-1.3
2022-11-19T11:28:18.227Z,-1.4
2022-11-19T11:33:17.435Z,-1.4
2022-11-19T11:38:17.479Z,-1.4
2022-11-19T11:43:18.118Z,-1.4
2022-11-19T11:48:18.226Z,-1.4
2022-11-19T11:53:18.202Z,-1.4
2022-11-19T11:58:18.186Z,-1.4
2022-11-19T12:03:18.106Z,-1.4
2022-11-19T12:08:17.416Z,-1.4
2022-11-19T12:13:17.360Z,-1.4
2022-11-19T12:18:17.278Z,-1.5
2022-11-19T12:23:18.660Z,-1.5
2022-11-19T12:28:17.359Z,-1.5
2022-11-19T12:33:17.531Z,-1.6
2022-11-19T12:38:17.194Z,-1.7
2022-11-19T12:43:17.382Z,-1.9
2022-11-19T12:48:17.256Z,-2.0
2022-11-19T12:53:17.217Z,-2.0
2022-11-19T12:58:17.240Z,-2.1
2022-11-19T13:03:18.069Z,-2.2
2022-11-19T13:08:17.276Z,-2.2
2022-11-19T13:13:17.196Z,-2.2
2022-11-19T13:18:17.574Z,-2.2
2022-11-19T13:23:17.870Z,-2.3
2022-11-19T13:28:17.133Z,-2.3
2022-11-19T13:33:17.208Z,-2.4
2022-11-19T13:38:17.358Z,-2.5
2022-11-19T13:43:31.573Z,-2.5
2022-11-19T13:48:17.431Z,-2.6
2022-11-19T13:53:17.267Z,-2.6
2022-11-19T13:58:17.158Z,-2.7
2022-11-19T14:03:17.159Z,-2.7
2022-11-19T14:08:17.299Z,-2.8
2022-11-19T14:13:17.588Z,-2.8
2022-11-19T14:18:17.134Z,-2.8
2022-11-19T14:23:17.407Z,-2.8
2022-11-19T14:28:19.693Z,-2.9
2022-11-19T14:33:17.034Z,-2.9
2022-11-19T14:38:18.260Z,-3.0
2022-11-19T14:43:17.068Z,-3.1
2022-11-19T14:48:17.087Z,-3.1
2022-11-19T14:53:17.237Z,-3.2
2022-11-19T14:58:17.906Z,-3.3
2022-11-19T15:03:17.750Z,-3.2
2022-11-19T15:08:17.765Z,-3.1
2022-11-19T15:13:17.769Z,-2.9
2022-11-19T15:18:18.923Z,-2.7
2022-11-19T15:23:17.736Z,-2.5
2022-11-19T15:28:17.681Z,-2.3
2022-11-19T15:33:16.925Z,-2.3
2022-11-19T15:38:20.458Z,-2.1
2022-11-19T15:43:16.880Z,-2.2
2022-11-19T15:48:17.649Z,-2.2
2022-11-19T15:53:17.029Z,-2.2
2022-11-19T15:58:16.878Z,-2.0
2022-11-19T16:03:16.851Z,-2.3
2022-11-19T16:08:17.535Z,-2.5
2022-11-19T16:13:17.578Z,-2.5
2022-11-19T16:18:17.507Z,-2.6
2022-11-19T16:23:17.569Z,-2.7
2022-11-19T16:28:17.549Z,-2.8
2022-11-19T16:33:17.605Z,-2.9
2022-11-19T16:38:17.585Z,-3.1
2022-11-19T16:43:17.733Z,-3.3
2022-11-19T16:48:17.548Z,-3.3
2022-11-19T16:53:17.774Z,-3.3
2022-11-19T16:58:17.456Z,-3.5
2022-11-19T17:03:17.536Z,-3.6
2022-11-19T17:08:17.557Z,-3.7
2022-11-19T17:13:17.529Z,-3.9
2022-11-19T17:18:17.412Z,-4.0
2022-11-19T17:23:17.532Z,-3.9
2022-11-19T17:28:18.378Z,-3.9
2022-11-19T17:33:17.475Z,-4.0
2022-11-19T17:38:16.758Z,-3.9
2022-11-19T17:43:17.432Z,-4.0
2022-11-19T17:48:17.458Z,-4.0
2022-11-19T17:53:17.394Z,-4.0
2022-11-19T17:58:16.688Z,-4.0
2022-11-19T18:03:16.693Z,-3.9
2022-11-19T18:08:16.780Z,-4.1
2022-11-19T18:13:16.558Z,-4.2
2022-11-19T18:18:16.796Z,-4.2
2022-11-19T18:23:16.669Z,-4.3
2022-11-19T18:28:17.024Z,-4.4
2022-11-19T18:33:17.231Z,-4.6
2022-11-19T18:38:16.650Z,-4.7
2022-11-19T18:43:16.619Z,-4.9
2022-11-19T18:48:17.326Z,-4.9
2022-11-19T18:53:16.659Z,-4.8
2022-11-19T18:58:17.506Z,-4.9
2022-11-19T19:03:16.525Z,-4.9
2022-11-19T19:08:17.283Z,-4.9
2022-11-19T19:13:17.321Z,-4.8
2022-11-19T19:18:17.255Z,-4.8
2022-11-19T19:23:17.359Z,-4.6
2022-11-19T19:28:17.213Z,-4.6
2022-11-19T19:33:17.240Z,-4.5
2022-11-19T19:38:17.737Z,-4.4
2022-11-19T19:43:17.239Z,-4.3
2022-11-19T19:48:17.437Z,-4.3
2022-11-19T19:53:17.382Z,-4.3
2022-11-19T19:58:17.170Z,-4.5
2022-11-19T20:03:18.409Z,-4.5
2022-11-19T20:08:17.612Z,-4.5
2022-11-19T20:13:17.414Z,-4.6
2022-11-19T20:18:17.268Z,-4.6
2022-11-19T20:23:17.245Z,-4.6
2022-11-19T20:28:18.017Z,-4.6
2022-11-19T20:33:17.178Z,-4.7
2022-11-19T20:38:17.397Z,-4.8
2022-11-19T20:43:17.363Z,-4.9
2022-11-19T20:48:17.143Z,-4.9
2022-11-19T20:53:17.211Z,-4.8
2022-11-19T20:58:17.166Z,-4.8
2022-11-19T21:03:17.129Z,-5.0
2022-11-19T21:08:17.050Z,-4.9
2022-11-19T21:13:17.389Z,-4.9
2022-11-19T21:18:17.002Z,-5.1
2022-11-19T21:23:16.953Z,-5.3
2022-11-19T21:28:16.994Z,-5.4
2022-11-19T21:33:17.014Z,-5.4
2022-11-19T21:38:16.408Z,-5.4
2022-11-19T21:43:16.466Z,-5.5
2022-11-19T21:48:16.992Z,-5.7
2022-11-19T21:53:17.121Z,-5.8
2022-11-19T21:58:16.946Z,-5.8
2022-11-19T22:03:17.568Z,-5.8
2022-11-19T22:08:46.297Z,-5.9
2022-11-19T22:13:18.368Z,-6.1
2022-11-19T22:18:16.980Z,-6.2
2022-11-19T22:23:20.158Z,-6.2
2022-11-19T22:28:16.981Z,-6.1
2022-11-19T22:33:17.204Z,-6.1
2022-11-19T22:38:16.953Z,-6.2
2022-11-19T22:43:20.276Z,-6.2
2022-11-19T22:48:16.880Z,-6.1
2022-11-19T22:53:16.871Z,-5.9
2022-11-19T22:58:16.843Z,-5.8
2022-11-19T23:03:16.899Z,-5.6
2022-11-19T23:08:16.782Z,-5.5
2022-11-19T23:13:16.837Z,-5.4
2022-11-19T23:18:16.729Z,-5.3
2022-11-19T23:23:16.810Z,-5.5
2022-11-19T23:28:16.788Z,-5.4
2022-11-19T23:33:16.032Z,-5.3
2022-11-19T23:38:16.769Z,-5.3
2022-11-19T23:43:16.009Z,-5.5
2022-11-19T23:48:16.025Z,-5.8
2022-11-19T23:53:16.280Z,-5.9
2022-11-19T23:58:15.961Z,-6.1
